sensor_id;sensor_type;location;lat;lon;timestamp;pressure;altitude;pressure_sealevel;temperature;humidity
78383;BME280;67668;52.294;4.692;2023-05-29T00:03:08;102582.63;;;15.47;56.27
78383;BME280;67668;52.294;4.692;2023-05-29T00:05:35;102580.34;;;15.43;56.71
78383;BME280;67668;52.294;4.692;2023-05-29T00:08:00;102584.00;;;15.42;57.08
78383;BME280;67668;52.294;4.692;2023-05-29T00:10:26;102585.22;;;15.38;56.75
78383;BME280;67668;52.294;4.692;2023-05-29T00:12:51;102581.84;;;15.36;57.12
78383;BME280;67668;52.294;4.692;2023-05-29T00:15:17;102588.56;;;15.30;56.61
78383;BME280;67668;52.294;4.692;2023-05-29T00:17:42;102587.72;;;15.30;56.89
78383;BME280;67668;52.294;4.692;2023-05-29T00:20:08;102595.81;;;15.28;57.33
78383;BME280;67668;52.294;4.692;2023-05-29T00:22:35;102590.63;;;15.27;56.69
78383;BME280;67668;52.294;4.692;2023-05-29T00:25:04;102591.75;;;15.24;57.19
78383;BME280;67668;52.294;4.692;2023-05-29T00:27:31;102589.19;;;15.23;56.99
78383;BME280;67668;52.294;4.692;2023-05-29T00:29:58;102591.41;;;15.18;56.60
78383;BME280;67668;52.294;4.692;2023-05-29T00:32:26;102597.97;;;15.14;56.51
78383;BME280;67668;52.294;4.692;2023-05-29T00:34:53;102598.25;;;15.11;56.31
78383;BME280;67668;52.294;4.692;2023-05-29T00:37:18;102599.56;;;15.05;56.72
78383;BME280;67668;52.294;4.692;2023-05-29T00:39:43;102604.19;;;15.03;56.97
78383;BME280;67668;52.294;4.692;2023-05-29T00:42:09;102595.59;;;14.99;56.46
78383;BME280;67668;52.294;4.692;2023-05-29T00:44:34;102604.81;;;14.95;56.58
78383;BME280;67668;52.294;4.692;2023-05-29T00:47:01;102600.59;;;14.93;56.71
78383;BME280;67668;52.294;4.692;2023-05-29T00:49:26;102601.81;;;14.89;56.62
78383;BME280;67668;52.294;4.692;2023-05-29T00:51:52;102616.00;;;14.89;56.85
78383;BME280;67668;52.294;4.692;2023-05-29T00:54:26;102616.50;;;14.83;56.60
78383;BME280;67668;52.294;4.692;2023-05-29T00:56:53;102614.97;;;14.81;57.19
78383;BME280;67668;52.294;4.692;2023-05-29T00:59:19;102616.78;;;14.80;57.09
78383;BME280;67668;52.294;4.692;2023-05-29T01:01:48;102614.34;;;14.77;56.90
78383;BME280;67668;52.294;4.692;2023-05-29T01:04:16;102615.22;;;14.78;57.39
78383;BME280;67668;52.294;4.692;2023-05-29T01:06:42;102613.63;;;14.75;56.90
78383;BME280;67668;52.294;4.692;2023-05-29T01:09:07;102622.59;;;14.74;56.78
78383;BME280;67668;52.294;4.692;2023-05-29T01:14:09;102624.06;;;14.67;56.59
78383;BME280;67668;52.294;4.692;2023-05-29T01:16:54;102617.28;;;14.63;57.02
78383;BME280;67668;52.294;4.692;2023-05-29T01:19:51;102619.34;;;14.60;56.94
78383;BME280;67668;52.294;4.692;2023-05-29T01:22:39;102622.16;;;14.58;57.34
78383;BME280;67668;52.294;4.692;2023-05-29T01:28:09;102621.91;;;14.50;57.19
78383;BME280;67668;52.294;4.692;2023-05-29T01:30:36;102631.88;;;14.48;57.12
78383;BME280;67668;52.294;4.692;2023-05-29T01:33:02;102633.06;;;14.44;57.11
78383;BME280;67668;52.294;4.692;2023-05-29T01:35:27;102629.22;;;14.37;56.71
78383;BME280;67668;52.294;4.692;2023-05-29T01:37:53;102633.03;;;14.33;57.35
78383;BME280;67668;52.294;4.692;2023-05-29T01:40:18;102635.00;;;14.31;56.99
78383;BME280;67668;52.294;4.692;2023-05-29T01:42:44;102638.00;;;14.26;57.25
78383;BME280;67668;52.294;4.692;2023-05-29T01:45:10;102640.81;;;14.25;57.54
78383;BME280;67668;52.294;4.692;2023-05-29T01:47:37;102641.78;;;14.24;57.84
78383;BME280;67668;52.294;4.692;2023-05-29T01:50:04;102645.53;;;14.21;57.74
78383;BME280;67668;52.294;4.692;2023-05-29T01:52:30;102649.41;;;14.17;57.97
78383;BME280;67668;52.294;4.692;2023-05-29T01:54:55;102645.16;;;14.15;57.49
78383;BME280;67668;52.294;4.692;2023-05-29T01:57:22;102653.50;;;14.10;58.03
78383;BME280;67668;52.294;4.692;2023-05-29T01:59:47;102650.94;;;14.09;58.29
78383;BME280;67668;52.294;4.692;2023-05-29T02:02:14;102655.69;;;14.05;57.82
78383;BME280;67668;52.294;4.692;2023-05-29T02:04:39;102658.47;;;14.04;58.27
78383;BME280;67668;52.294;4.692;2023-05-29T02:07:05;102655.81;;;14.04;58.65
78383;BME280;67668;52.294;4.692;2023-05-29T02:09:32;102653.38;;;14.01;58.19
78383;BME280;67668;52.294;4.692;2023-05-29T02:11:57;102648.31;;;13.97;57.85
78383;BME280;67668;52.294;4.692;2023-05-29T02:14:22;102654.59;;;13.96;58.93
78383;BME280;67668;52.294;4.692;2023-05-29T02:16:51;102650.97;;;13.97;59.07
78383;BME280;67668;52.294;4.692;2023-05-29T02:19:18;102636.81;;;13.97;58.56
78383;BME280;67668;52.294;4.692;2023-05-29T02:21:46;102641.50;;;13.93;57.94
78383;BME280;67668;52.294;4.692;2023-05-29T02:24:12;102639.09;;;13.90;58.34
78383;BME280;67668;52.294;4.692;2023-05-29T02:26:37;102637.38;;;13.89;58.54
78383;BME280;67668;52.294;4.692;2023-05-29T02:29:03;102647.31;;;13.87;58.67
78383;BME280;67668;52.294;4.692;2023-05-29T02:31:32;102647.56;;;13.84;57.83
78383;BME280;67668;52.294;4.692;2023-05-29T02:33:59;102646.94;;;13.81;58.62
78383;BME280;67668;52.294;4.692;2023-05-29T02:36:24;102646.09;;;13.80;58.95
78383;BME280;67668;52.294;4.692;2023-05-29T02:38:51;102652.50;;;13.78;58.68
78383;BME280;67668;52.294;4.692;2023-05-29T02:41:17;102649.22;;;13.74;58.06
78383;BME280;67668;52.294;4.692;2023-05-29T02:43:42;102654.03;;;13.69;58.43
78383;BME280;67668;52.294;4.692;2023-05-29T02:46:07;102637.59;;;13.64;58.61
78383;BME280;67668;52.294;4.692;2023-05-29T02:48:33;102640.50;;;13.61;58.46
78383;BME280;67668;52.294;4.692;2023-05-29T02:50:58;102646.91;;;13.59;58.64
78383;BME280;67668;52.294;4.692;2023-05-29T02:53:24;102644.44;;;13.56;58.50
78383;BME280;67668;52.294;4.692;2023-05-29T02:55:49;102644.81;;;13.51;58.70
78383;BME280;67668;52.294;4.692;2023-05-29T02:58:16;102656.56;;;13.49;59.02
78383;BME280;67668;52.294;4.692;2023-05-29T03:00:41;102653.13;;;13.46;59.28
78383;BME280;67668;52.294;4.692;2023-05-29T03:03:06;102653.03;;;13.48;59.10
78383;BME280;67668;52.294;4.692;2023-05-29T03:05:32;102654.94;;;13.46;58.78
78383;BME280;67668;52.294;4.692;2023-05-29T03:07:57;102649.13;;;13.41;58.76
78383;BME280;67668;52.294;4.692;2023-05-29T03:10:23;102646.34;;;13.42;59.85
78383;BME280;67668;52.294;4.692;2023-05-29T03:12:48;102652.53;;;13.43;59.15
78383;BME280;67668;52.294;4.692;2023-05-29T03:15:14;102655.41;;;13.40;58.51
78383;BME280;67668;52.294;4.692;2023-05-29T03:17:41;102645.97;;;13.36;58.97
78383;BME280;67668;52.294;4.692;2023-05-29T03:20:07;102643.31;;;13.36;59.44
78383;BME280;67668;52.294;4.692;2023-05-29T03:22:34;102643.44;;;13.34;58.90
78383;BME280;67668;52.294;4.692;2023-05-29T03:25:04;102641.63;;;13.35;59.38
78383;BME280;67668;52.294;4.692;2023-05-29T03:27:30;102639.06;;;13.33;59.16
78383;BME280;67668;52.294;4.692;2023-05-29T03:29:56;102640.16;;;13.31;58.53
78383;BME280;67668;52.294;4.692;2023-05-29T03:32:21;102651.88;;;13.28;58.99
78383;BME280;67668;52.294;4.692;2023-05-29T03:34:47;102646.91;;;13.24;58.68
78383;BME280;67668;52.294;4.692;2023-05-29T03:37:13;102647.97;;;13.21;58.38
78383;BME280;67668;52.294;4.692;2023-05-29T03:39:39;102653.53;;;13.18;58.70
78383;BME280;67668;52.294;4.692;2023-05-29T03:42:04;102651.19;;;13.14;59.03
78383;BME280;67668;52.294;4.692;2023-05-29T03:44:31;102653.75;;;13.15;59.30
78383;BME280;67668;52.294;4.692;2023-05-29T03:46:56;102654.59;;;13.16;59.67
78383;BME280;67668;52.294;4.692;2023-05-29T03:49:22;102652.06;;;13.14;59.61
78383;BME280;67668;52.294;4.692;2023-05-29T03:51:47;102654.59;;;13.16;59.41
78383;BME280;67668;52.294;4.692;2023-05-29T03:54:14;102649.50;;;13.13;59.27
78383;BME280;67668;52.294;4.692;2023-05-29T03:56:39;102653.13;;;13.12;58.88
78383;BME280;67668;52.294;4.692;2023-05-29T03:59:04;102664.91;;;13.08;58.96
78383;BME280;67668;52.294;4.692;2023-05-29T04:01:32;102657.91;;;13.07;59.08
78383;BME280;67668;52.294;4.692;2023-05-29T04:03:58;102660.56;;;13.07;59.19
78383;BME280;67668;52.294;4.692;2023-05-29T04:06:30;102665.16;;;13.05;59.14
78383;BME280;67668;52.294;4.692;2023-05-29T04:08:55;102665.25;;;13.03;59.13
78383;BME280;67668;52.294;4.692;2023-05-29T04:11:21;102665.25;;;13.03;59.72
78383;BME280;67668;52.294;4.692;2023-05-29T04:13:47;102671.41;;;13.04;59.75
78383;BME280;67668;52.294;4.692;2023-05-29T04:16:14;102661.88;;;13.01;59.02
78383;BME280;67668;52.294;4.692;2023-05-29T04:18:40;102658.34;;;13.01;59.54
78383;BME280;67668;52.294;4.692;2023-05-29T04:21:05;102662.72;;;13.02;59.05
78383;BME280;67668;52.294;4.692;2023-05-29T04:23:31;102673.69;;;12.97;58.66
78383;BME280;67668;52.294;4.692;2023-05-29T04:25:57;102664.97;;;12.95;59.22
78383;BME280;67668;52.294;4.692;2023-05-29T04:28:22;102672.09;;;12.94;59.69
78383;BME280;67668;52.294;4.692;2023-05-29T04:30:48;102673.06;;;12.93;59.60
78383;BME280;67668;52.294;4.692;2023-05-29T04:33:14;102678.50;;;12.92;59.55
78383;BME280;67668;52.294;4.692;2023-05-29T04:35:40;102685.63;;;12.91;60.04
78383;BME280;67668;52.294;4.692;2023-05-29T04:38:09;102688.28;;;12.91;59.99
78383;BME280;67668;52.294;4.692;2023-05-29T04:40:34;102692.63;;;12.92;60.08
78383;BME280;67668;52.294;4.692;2023-05-29T04:43:02;102698.91;;;12.91;59.41
78383;BME280;67668;52.294;4.692;2023-05-29T04:45:30;102698.06;;;12.91;59.94
78383;BME280;67668;52.294;4.692;2023-05-29T04:47:55;102695.50;;;12.89;59.56
78383;BME280;67668;52.294;4.692;2023-05-29T04:50:21;102698.16;;;12.89;59.98
78383;BME280;67668;52.294;4.692;2023-05-29T04:52:48;102697.31;;;12.89;60.19
78383;BME280;67668;52.294;4.692;2023-05-29T04:55:14;102702.50;;;12.90;59.92
78383;BME280;67668;52.294;4.692;2023-05-29T04:57:40;102701.78;;;12.88;59.86
78383;BME280;67668;52.294;4.692;2023-05-29T05:00:06;102708.06;;;12.87;60.11
78383;BME280;67668;52.294;4.692;2023-05-29T05:02:41;102704.66;;;12.85;59.60
78383;BME280;67668;52.294;4.692;2023-05-29T05:05:07;102703.91;;;12.83;59.70
78383;BME280;67668;52.294;4.692;2023-05-29T05:07:32;102706.56;;;12.83;60.14
78383;BME280;67668;52.294;4.692;2023-05-29T05:09:57;102702.09;;;12.84;59.33
78383;BME280;67668;52.294;4.692;2023-05-29T05:12:23;102701.38;;;12.82;60.20
78383;BME280;67668;52.294;4.692;2023-05-29T05:14:48;102705.84;;;12.81;59.38
78383;BME280;67668;52.294;4.692;2023-05-29T05:17:14;102708.50;;;12.81;60.20
78383;BME280;67668;52.294;4.692;2023-05-29T05:19:39;102711.66;;;12.86;59.99
78383;BME280;67668;52.294;4.692;2023-05-29T05:22:04;102708.16;;;12.86;59.58
78383;BME280;67668;52.294;4.692;2023-05-29T05:24:30;102705.41;;;12.87;58.91
78383;BME280;67668;52.294;4.692;2023-05-29T05:26:57;102709.75;;;12.88;59.43
78383;BME280;67668;52.294;4.692;2023-05-29T05:29:22;102704.44;;;12.88;59.68
78383;BME280;67668;52.294;4.692;2023-05-29T05:31:48;102708.69;;;12.91;59.63
78383;BME280;67668;52.294;4.692;2023-05-29T05:34:13;102704.00;;;12.94;59.88
78383;BME280;67668;52.294;4.692;2023-05-29T05:36:38;102711.66;;;12.99;59.09
78383;BME280;67668;52.294;4.692;2023-05-29T05:39:04;102708.84;;;13.01;59.27
78383;BME280;67668;52.294;4.692;2023-05-29T05:41:30;102711.28;;;13.04;58.02
78383;BME280;67668;52.294;4.692;2023-05-29T05:43:56;102714.56;;;13.07;58.98
78383;BME280;67668;52.294;4.692;2023-05-29T05:46:21;102717.03;;;13.10;57.67
78383;BME280;67668;52.294;4.692;2023-05-29T05:48:47;102706.31;;;13.12;58.35
78383;BME280;67668;52.294;4.692;2023-05-29T05:51:12;102714.06;;;13.15;58.00
78383;BME280;67668;52.294;4.692;2023-05-29T05:53:39;102724.13;;;13.22;58.79
78383;BME280;67668;52.294;4.692;2023-05-29T05:56:04;102717.50;;;13.28;58.37
78383;BME280;67668;52.294;4.692;2023-05-29T05:58:30;102726.84;;;13.33;58.19
78383;BME280;67668;52.294;4.692;2023-05-29T06:00:55;102726.72;;;13.35;57.85
78383;BME280;67668;52.294;4.692;2023-05-29T06:03:22;102728.09;;;13.40;56.83
78383;BME280;67668;52.294;4.692;2023-05-29T06:05:48;102725.09;;;13.45;57.84
78383;BME280;67668;52.294;4.692;2023-05-29T06:08:13;102730.66;;;13.53;58.03
78383;BME280;67668;52.294;4.692;2023-05-29T06:10:40;102729.47;;;13.57;57.86
78383;BME280;67668;52.294;4.692;2023-05-29T06:13:05;102729.03;;;13.63;56.64
78383;BME280;67668;52.294;4.692;2023-05-29T06:15:31;102728.31;;;13.72;57.46
78383;BME280;67668;52.294;4.692;2023-05-29T06:17:57;102722.56;;;13.78;56.24
78383;BME280;67668;52.294;4.692;2023-05-29T06:20:22;102732.50;;;13.87;55.51
78383;BME280;67668;52.294;4.692;2023-05-29T06:22:48;102730.31;;;13.92;55.92
78383;BME280;67668;52.294;4.692;2023-05-29T06:25:19;102734.09;;;14.01;56.64
78383;BME280;67668;52.294;4.692;2023-05-29T06:27:44;102732.53;;;14.10;56.30
78383;BME280;67668;52.294;4.692;2023-05-29T06:30:11;102727.47;;;14.18;55.77
78383;BME280;67668;52.294;4.692;2023-05-29T06:32:36;102733.78;;;14.28;55.77
78383;BME280;67668;52.294;4.692;2023-05-29T06:35:02;102736.00;;;14.34;55.22
78383;BME280;67668;52.294;4.692;2023-05-29T06:37:27;102733.31;;;14.45;53.99
78383;BME280;67668;52.294;4.692;2023-05-29T06:39:53;102730.91;;;14.53;54.52
78383;BME280;67668;52.294;4.692;2023-05-29T06:42:18;102741.69;;;14.63;54.55
78383;BME280;67668;52.294;4.692;2023-05-29T06:44:43;102741.69;;;14.74;54.39
78383;BME280;67668;52.294;4.692;2023-05-29T06:47:09;102740.25;;;14.81;53.95
78383;BME280;67668;52.294;4.692;2023-05-29T06:49:34;102734.03;;;14.91;53.58
78383;BME280;67668;52.294;4.692;2023-05-29T06:52:01;102735.13;;;15.00;53.42
78383;BME280;67668;52.294;4.692;2023-05-29T06:54:26;102740.66;;;15.08;53.08
78383;BME280;67668;52.294;4.692;2023-05-29T06:56:51;102741.50;;;15.20;53.16
78383;BME280;67668;52.294;4.692;2023-05-29T06:59:19;102743.56;;;15.27;52.36
78383;BME280;67668;52.294;4.692;2023-05-29T07:01:45;102748.97;;;15.37;52.11
78383;BME280;67668;52.294;4.692;2023-05-29T07:04:11;102749.91;;;15.47;52.00
78383;BME280;67668;52.294;4.692;2023-05-29T07:06:36;102745.53;;;15.57;52.01
78383;BME280;67668;52.294;4.692;2023-05-29T07:09:02;102752.06;;;15.64;51.08
78383;BME280;67668;52.294;4.692;2023-05-29T07:11:27;102755.78;;;15.73;50.71
78383;BME280;67668;52.294;4.692;2023-05-29T07:13:55;102753.19;;;15.82;50.38
78383;BME280;67668;52.294;4.692;2023-05-29T07:16:21;102769.16;;;15.93;50.48
78383;BME280;67668;52.294;4.692;2023-05-29T07:18:46;102765.81;;;16.01;50.28
78383;BME280;67668;52.294;4.692;2023-05-29T07:21:12;102769.28;;;16.13;49.68
78383;BME280;67668;52.294;4.692;2023-05-29T07:23:37;102773.84;;;16.22;49.88
78383;BME280;67668;52.294;4.692;2023-05-29T07:26:02;102773.88;;;16.31;49.20
78383;BME280;67668;52.294;4.692;2023-05-29T07:28:28;102779.28;;;16.41;47.71
78383;BME280;67668;52.294;4.692;2023-05-29T07:30:53;102764.03;;;16.52;48.58
78383;BME280;67668;52.294;4.692;2023-05-29T07:33:19;102777.47;;;16.62;49.04
78383;BME280;67668;52.294;4.692;2023-05-29T07:35:44;102784.56;;;16.73;47.80
78383;BME280;67668;52.294;4.692;2023-05-29T07:38:10;102775.59;;;16.83;47.98
78383;BME280;67668;52.294;4.692;2023-05-29T07:40:35;102767.59;;;16.93;48.21
78383;BME280;67668;52.294;4.692;2023-05-29T07:43:00;102774.81;;;17.02;48.32
78383;BME280;67668;52.294;4.692;2023-05-29T07:45:26;102779.31;;;17.11;47.84
78383;BME280;67668;52.294;4.692;2023-05-29T07:47:52;102772.44;;;17.18;47.61
78383;BME280;67668;52.294;4.692;2023-05-29T07:50:17;102772.03;;;17.23;46.30
78383;BME280;67668;52.294;4.692;2023-05-29T07:52:43;102769.66;;;17.29;47.03
78383;BME280;67668;52.294;4.692;2023-05-29T07:55:09;102768.13;;;17.36;47.37
78383;BME280;67668;52.294;4.692;2023-05-29T07:57:35;102762.91;;;17.44;47.71
78383;BME280;67668;52.294;4.692;2023-05-29T08:00:01;102762.91;;;17.54;47.76
78383;BME280;67668;52.294;4.692;2023-05-29T08:02:33;102768.31;;;17.64;46.87
78383;BME280;67668;52.294;4.692;2023-05-29T08:04:58;102758.88;;;17.69;45.79
78383;BME280;67668;52.294;4.692;2023-05-29T08:07:24;102776.34;;;17.83;46.23
78383;BME280;67668;52.294;4.692;2023-05-29T08:09:49;102780.13;;;17.90;44.35
78383;BME280;67668;52.294;4.692;2023-05-29T08:12:15;102776.75;;;17.97;44.49
78383;BME280;67668;52.294;4.692;2023-05-29T08:14:40;102780.56;;;18.04;44.38
78383;BME280;67668;52.294;4.692;2023-05-29T08:17:05;102789.72;;;18.12;45.07
78383;BME280;67668;52.294;4.692;2023-05-29T08:19:31;102776.59;;;18.18;45.25
78383;BME280;67668;52.294;4.692;2023-05-29T08:21:56;102783.06;;;18.25;45.68
78383;BME280;67668;52.294;4.692;2023-05-29T08:24:22;102788.69;;;18.32;44.20
78383;BME280;67668;52.294;4.692;2023-05-29T08:26:47;102774.13;;;18.44;43.30
78383;BME280;67668;52.294;4.692;2023-05-29T08:29:13;102778.94;;;18.50;45.09
78383;BME280;67668;52.294;4.692;2023-05-29T08:31:39;102780.03;;;18.57;44.58
78383;BME280;67668;52.294;4.692;2023-05-29T08:34:05;102771.94;;;18.67;44.81
78383;BME280;67668;52.294;4.692;2023-05-29T08:36:32;102771.09;;;18.76;43.55
78383;BME280;67668;52.294;4.692;2023-05-29T08:38:57;102777.53;;;18.83;42.76
78383;BME280;67668;52.294;4.692;2023-05-29T08:41:45;102784.53;;;18.93;43.83
78383;BME280;67668;52.294;4.692;2023-05-29T08:44:20;102786.19;;;19.04;43.59
78383;BME280;67668;52.294;4.692;2023-05-29T08:46:46;102789.78;;;19.13;42.85
78383;BME280;67668;52.294;4.692;2023-05-29T08:49:15;102788.06;;;19.21;41.64
78383;BME280;67668;52.294;4.692;2023-05-29T08:51:45;102773.72;;;19.30;43.41
78383;BME280;67668;52.294;4.692;2023-05-29T08:54:13;102777.09;;;19.42;41.79
78383;BME280;67668;52.294;4.692;2023-05-29T08:56:39;102774.63;;;19.48;40.75
78383;BME280;67668;52.294;4.692;2023-05-29T08:59:05;102786.16;;;19.58;42.12
78383;BME280;67668;52.294;4.692;2023-05-29T09:01:33;102774.47;;;19.68;42.50
78383;BME280;67668;52.294;4.692;2023-05-29T09:04:00;102790.50;;;19.77;42.85
78383;BME280;67668;52.294;4.692;2023-05-29T09:06:26;102795.66;;;19.88;41.18
78383;BME280;67668;52.294;4.692;2023-05-29T09:08:52;102790.88;;;20.00;42.20
78383;BME280;67668;52.294;4.692;2023-05-29T09:11:18;102779.03;;;20.10;40.88
78383;BME280;67668;52.294;4.692;2023-05-29T09:13:43;102779.78;;;20.21;41.78
78383;BME280;67668;52.294;4.692;2023-05-29T09:16:09;102789.63;;;20.30;41.21
78383;BME280;67668;52.294;4.692;2023-05-29T09:18:34;102792.19;;;20.39;41.70
78383;BME280;67668;52.294;4.692;2023-05-29T09:21:06;102790.09;;;20.51;41.38
78383;BME280;67668;52.294;4.692;2023-05-29T09:23:34;102779.03;;;20.62;39.44
78383;BME280;67668;52.294;4.692;2023-05-29T09:26:02;102791.06;;;20.76;40.54
78383;BME280;67668;52.294;4.692;2023-05-29T09:28:30;102789.09;;;20.86;39.76
78383;BME280;67668;52.294;4.692;2023-05-29T09:30:56;102792.19;;;20.99;40.64
78383;BME280;67668;52.294;4.692;2023-05-29T09:33:24;102801.84;;;21.09;40.20
78383;BME280;67668;52.294;4.692;2023-05-29T09:35:50;102786.25;;;21.21;38.75
78383;BME280;67668;52.294;4.692;2023-05-29T09:38:17;102801.22;;;21.32;39.58
78383;BME280;67668;52.294;4.692;2023-05-29T09:40:43;102784.91;;;21.41;38.95
78383;BME280;67668;52.294;4.692;2023-05-29T09:43:18;102784.28;;;21.55;37.74
78383;BME280;67668;52.294;4.692;2023-05-29T09:45:47;102796.59;;;21.66;38.10
78383;BME280;67668;52.294;4.692;2023-05-29T09:48:17;102777.41;;;21.77;37.66
78383;BME280;67668;52.294;4.692;2023-05-29T09:50:43;102795.94;;;21.88;36.97
78383;BME280;67668;52.294;4.692;2023-05-29T09:53:20;102779.78;;;21.96;37.44
78383;BME280;67668;52.294;4.692;2023-05-29T09:55:47;102786.19;;;22.03;37.78
78383;BME280;67668;52.294;4.692;2023-05-29T09:58:14;102786.53;;;22.08;36.23
78383;BME280;67668;52.294;4.692;2023-05-29T10:00:41;102771.00;;;22.19;37.26
78383;BME280;67668;52.294;4.692;2023-05-29T10:03:07;102775.72;;;22.33;36.60
78383;BME280;67668;52.294;4.692;2023-05-29T10:05:32;102788.81;;;22.44;37.19
78383;BME280;67668;52.294;4.692;2023-05-29T10:07:59;102764.53;;;22.52;35.34
78383;BME280;67668;52.294;4.692;2023-05-29T10:10:28;102770.91;;;22.59;37.51
78383;BME280;67668;52.294;4.692;2023-05-29T10:12:55;102764.34;;;22.70;36.95
78383;BME280;67668;52.294;4.692;2023-05-29T10:15:23;102763.13;;;22.80;36.72
78383;BME280;67668;52.294;4.692;2023-05-29T10:17:53;102778.56;;;22.94;35.66
78383;BME280;67668;52.294;4.692;2023-05-29T10:20:22;102772.28;;;23.02;35.42
78383;BME280;67668;52.294;4.692;2023-05-29T10:22:50;102773.75;;;23.12;35.14
78383;BME280;67668;52.294;4.692;2023-05-29T10:25:20;102776.59;;;23.19;35.18
78383;BME280;67668;52.294;4.692;2023-05-29T10:27:48;102779.22;;;23.27;34.78
78383;BME280;67668;52.294;4.692;2023-05-29T10:30:26;102774.16;;;23.32;35.34
78383;BME280;67668;52.294;4.692;2023-05-29T10:33:31;102768.53;;;23.42;35.49
78383;BME280;67668;52.294;4.692;2023-05-29T10:38:34;102780.25;;;23.57;34.94
78383;BME280;67668;52.294;4.692;2023-05-29T10:41:29;102782.81;;;23.73;35.06
78383;BME280;67668;52.294;4.692;2023-05-29T10:43:57;102767.56;;;23.80;34.94
78383;BME280;67668;52.294;4.692;2023-05-29T10:49:20;102768.47;;;23.95;34.36
78383;BME280;67668;52.294;4.692;2023-05-29T10:51:46;102769.41;;;24.02;34.62
78383;BME280;67668;52.294;4.692;2023-05-29T10:54:12;102772.38;;;24.15;33.55
78383;BME280;67668;52.294;4.692;2023-05-29T10:56:44;102774.34;;;24.22;34.32
78383;BME280;67668;52.294;4.692;2023-05-29T10:59:18;102762.75;;;24.28;33.88
78383;BME280;67668;52.294;4.692;2023-05-29T11:01:44;102765.41;;;24.36;33.99
78383;BME280;67668;52.294;4.692;2023-05-29T11:06:47;102759.78;;;24.52;33.93
78383;BME280;67668;52.294;4.692;2023-05-29T11:09:39;102761.91;;;24.56;34.19
78383;BME280;67668;52.294;4.692;2023-05-29T11:15:10;102761.56;;;24.74;32.45
78383;BME280;67668;52.294;4.692;2023-05-29T11:20:17;102755.88;;;24.84;32.48
78383;BME280;67668;52.294;4.692;2023-05-29T11:25:25;102760.22;;;24.99;30.56
78383;BME280;67668;52.294;4.692;2023-05-29T11:27:51;102773.50;;;25.09;32.23
78383;BME280;67668;52.294;4.692;2023-05-29T11:30:20;102771.59;;;25.09;31.06
78383;BME280;67668;52.294;4.692;2023-05-29T11:32:47;102769.81;;;25.16;32.16
78383;BME280;67668;52.294;4.692;2023-05-29T11:35:13;102756.53;;;25.22;31.46
78383;BME280;67668;52.294;4.692;2023-05-29T11:37:42;102769.50;;;25.26;32.03
78383;BME280;67668;52.294;4.692;2023-05-29T11:40:12;102765.22;;;25.32;31.74
78383;BME280;67668;52.294;4.692;2023-05-29T11:42:47;102762.88;;;25.29;31.74
78383;BME280;67668;52.294;4.692;2023-05-29T11:45:20;102768.88;;;25.24;30.64
78383;BME280;67668;52.294;4.692;2023-05-29T11:47:53;102774.53;;;25.29;31.18
78383;BME280;67668;52.294;4.692;2023-05-29T11:50:21;102755.56;;;25.29;31.61
78383;BME280;67668;52.294;4.692;2023-05-29T11:52:47;102776.31;;;25.37;32.18
78383;BME280;67668;52.294;4.692;2023-05-29T11:55:13;102768.00;;;25.38;31.47
78383;BME280;67668;52.294;4.692;2023-05-29T11:57:38;102763.66;;;25.44;31.35
78383;BME280;67668;52.294;4.692;2023-05-29T12:00:04;102768.69;;;25.47;31.61
78383;BME280;67668;52.294;4.692;2023-05-29T12:02:36;102776.38;;;25.43;31.76
78383;BME280;67668;52.294;4.692;2023-05-29T12:05:05;102768.44;;;25.42;31.29
78383;BME280;67668;52.294;4.692;2023-05-29T12:07:33;102771.53;;;25.39;31.84
78383;BME280;67668;52.294;4.692;2023-05-29T12:10:15;102770.50;;;25.40;31.98
78383;BME280;67668;52.294;4.692;2023-05-29T12:12:46;102769.47;;;25.41;31.37
78383;BME280;67668;52.294;4.692;2023-05-29T12:15:12;102763.13;;;25.34;31.41
78383;BME280;67668;52.294;4.692;2023-05-29T12:17:39;102778.31;;;25.28;32.45
78383;BME280;67668;52.294;4.692;2023-05-29T12:20:06;102784.28;;;25.24;32.23
78383;BME280;67668;52.294;4.692;2023-05-29T12:22:36;102769.44;;;25.19;32.27
78383;BME280;67668;52.294;4.692;2023-05-29T12:25:20;102770.59;;;25.10;32.11
78383;BME280;67668;52.294;4.692;2023-05-29T12:27:47;102766.56;;;25.06;32.84
78383;BME280;67668;52.294;4.692;2023-05-29T12:30:14;102758.81;;;25.03;32.46
78383;BME280;67668;52.294;4.692;2023-05-29T12:32:42;102767.72;;;24.97;32.79
78383;BME280;67668;52.294;4.692;2023-05-29T12:35:19;102759.13;;;24.94;33.41
78383;BME280;67668;52.294;4.692;2023-05-29T12:37:49;102761.75;;;24.87;33.27
78383;BME280;67668;52.294;4.692;2023-05-29T12:40:20;102769.41;;;24.84;33.07
78383;BME280;67668;52.294;4.692;2023-05-29T12:42:57;102769.94;;;24.79;33.71
78383;BME280;67668;52.294;4.692;2023-05-29T12:45:25;102752.88;;;24.79;33.35
78383;BME280;67668;52.294;4.692;2023-05-29T12:47:57;102766.78;;;24.76;32.64
78383;BME280;67668;52.294;4.692;2023-05-29T12:50:28;102759.31;;;24.78;32.43
78383;BME280;67668;52.294;4.692;2023-05-29T12:53:00;102762.47;;;24.81;32.61
78383;BME280;67668;52.294;4.692;2023-05-29T12:55:27;102761.50;;;24.82;31.93
78383;BME280;67668;52.294;4.692;2023-05-29T12:57:53;102759.94;;;24.80;32.85
78383;BME280;67668;52.294;4.692;2023-05-29T13:00:19;102771.38;;;24.75;32.46
78383;BME280;67668;52.294;4.692;2023-05-29T13:02:46;102763.88;;;24.77;32.11
78383;BME280;67668;52.294;4.692;2023-05-29T13:05:12;102766.59;;;24.77;33.29
78383;BME280;67668;52.294;4.692;2023-05-29T13:07:38;102758.78;;;24.82;32.31
78383;BME280;67668;52.294;4.692;2023-05-29T13:10:04;102763.31;;;24.82;32.63
78383;BME280;67668;52.294;4.692;2023-05-29T13:12:29;102769.63;;;24.82;32.78
78383;BME280;67668;52.294;4.692;2023-05-29T13:14:55;102759.78;;;24.81;32.98